createdAt,value
2023-05-19T00:02:09.556Z,99290.35
2023-05-19T00:04:37.238Z,99288.98
2023-05-19T00:07:04.270Z,99294.40
2023-05-19T00:09:31.477Z,99295.32
2023-05-19T00:11:58.599Z,99298.23
2023-05-19T00:14:25.672Z,99293.39
2023-05-19T00:16:52.862Z,99291.06
2023-05-19T00:19:19.688Z,99296.73
2023-05-19T00:21:46.566Z,99299.46
2023-05-19T00:24:13.409Z,99301.21
2023-05-19T00:26:40.287Z,99295.31
2023-05-19T00:29:07.176Z,99299.61
2023-05-19T00:31:34.277Z,99295.59
2023-05-19T00:34:01.676Z,99297.85
2023-05-19T00:36:28.634Z,99299.77
2023-05-19T00:38:57.228Z,99299.52
2023-05-19T00:41:25.159Z,99306.45
2023-05-19T00:43:51.995Z,99304.73
2023-05-19T00:46:19.573Z,99307.55
2023-05-19T00:48:46.838Z,99306.84
2023-05-19T00:51:16.924Z,99313.41
2023-05-19T00:53:48.614Z,99307.71
2023-05-19T00:56:16.691Z,99315.29
2023-05-19T00:58:44.090Z,99313.67
2023-05-19T01:01:17.466Z,99315.86
2023-05-19T01:03:44.613Z,99313.41
2023-05-19T01:06:12.415Z,99312.23
2023-05-19T01:08:39.432Z,99317.34
2023-05-19T01:11:06.972Z,99311.88
2023-05-19T01:13:34.823Z,99315.92
2023-05-19T01:16:03.451Z,99317.86
2023-05-19T01:18:33.645Z,99325.36
2023-05-19T01:21:27.437Z,99324.89
2023-05-19T01:24:24.628Z,99334.52
2023-05-19T01:27:10.268Z,99336.26
2023-05-19T01:30:08.405Z,99340.84
2023-05-19T01:32:35.322Z,99335.09
2023-05-19T01:35:02.512Z,99342.73
2023-05-19T01:37:31.508Z,99344.36
2023-05-19T01:39:58.345Z,99339.61
2023-05-19T01:42:25.103Z,99345.19
2023-05-19T01:44:51.952Z,99342.77
2023-05-19T01:47:19.410Z,99338.25
2023-05-19T01:49:46.252Z,99335.48
2023-05-19T01:52:13.031Z,99336.69
2023-05-19T01:54:39.928Z,99335.50
2023-05-19T01:57:15.325Z,99334.45
2023-05-19T01:59:54.199Z,99333.58
2023-05-19T02:02:34.640Z,99336.03
2023-05-19T02:05:07.135Z,99338.85
2023-05-19T02:07:44.344Z,99342.87
2023-05-19T02:10:13.679Z,99341.42
2023-05-19T02:12:40.789Z,99340.92
2023-05-19T02:15:22.053Z,99339.46
2023-05-19T02:17:52.115Z,99349.66
2023-05-19T02:20:20.133Z,99353.14
2023-05-19T02:22:47.075Z,99351.61
2023-05-19T02:25:14.170Z,99356.98
2023-05-19T02:27:41.330Z,99357.99
2023-05-19T02:30:08.895Z,99360.71
2023-05-19T02:32:36.893Z,99362.42
2023-05-19T02:35:04.264Z,99359.64
2023-05-19T02:37:31.245Z,99358.45
2023-05-19T02:39:58.140Z,99355.93
2023-05-19T02:42:24.972Z,99350.29
2023-05-19T02:44:54.638Z,99351.04
2023-05-19T02:47:22.205Z,99354.80
2023-05-19T02:49:49.105Z,99352.63
2023-05-19T02:52:15.982Z,99360.58
2023-05-19T02:54:43.013Z,99363.58
2023-05-19T02:57:11.286Z,99366.75
2023-05-19T02:59:38.168Z,99370.30
2023-05-19T03:02:05.107Z,99378.51
2023-05-19T03:04:32.094Z,99376.98
2023-05-19T03:06:58.918Z,99377.13
2023-05-19T03:09:25.859Z,99376.48
2023-05-19T03:11:53.158Z,99382.13
2023-05-19T03:14:24.353Z,99385.34
2023-05-19T03:16:51.447Z,99391.92
2023-05-19T03:19:18.442Z,99390.95
2023-05-19T03:21:45.629Z,99392.30
2023-05-19T03:24:12.503Z,99394.26
2023-05-19T03:26:39.359Z,99396.70
2023-05-19T03:29:06.511Z,99396.71
2023-05-19T03:31:34.253Z,99391.61
2023-05-19T03:34:22.450Z,99387.08
2023-05-19T03:36:50.498Z,99386.59
2023-05-19T03:39:17.769Z,99382.79
2023-05-19T03:41:45.513Z,99389.46
2023-05-19T03:44:12.469Z,99400.73
2023-05-19T03:46:39.289Z,99402.76
2023-05-19T03:49:09.004Z,99401.29
2023-05-19T03:51:55.993Z,99405.00
2023-05-19T03:54:34.071Z,99405.23
2023-05-19T03:57:02.299Z,99405.73
2023-05-19T03:59:30.258Z,99401.58
2023-05-19T04:01:58.130Z,99407.11
2023-05-19T04:04:26.815Z,99405.33
2023-05-19T04:06:53.647Z,99407.01
2023-05-19T04:09:20.560Z,99411.55
2023-05-19T04:11:47.372Z,99415.29
2023-05-19T04:14:14.150Z,99413.29
2023-05-19T04:16:41.771Z,99412.02
2023-05-19T04:19:09.038Z,99420.29
2023-05-19T04:21:36.933Z,99421.14
2023-05-19T04:24:06.444Z,99424.17
2023-05-19T04:26:34.587Z,99422.08
2023-05-19T04:29:04.946Z,99424.17
2023-05-19T04:31:34.484Z,99424.08
2023-05-19T04:34:03.447Z,99430.94
2023-05-19T04:36:31.435Z,99432.25
2023-05-19T04:39:07.142Z,99433.66
2023-05-19T04:41:34.823Z,99431.00
2023-05-19T04:44:02.190Z,99437.77
2023-05-19T04:46:30.225Z,99439.56
2023-05-19T04:48:57.787Z,99441.17
2023-05-19T04:51:30.307Z,99443.36
2023-05-19T04:53:58.549Z,99443.34
2023-05-19T04:56:27.573Z,99441.30
2023-05-19T04:58:55.192Z,99448.65
2023-05-19T05:01:26.389Z,99445.80
2023-05-19T05:03:59.213Z,99449.16
2023-05-19T05:06:26.656Z,99448.70
2023-05-19T05:08:53.554Z,99452.88
2023-05-19T05:11:20.819Z,99445.81
2023-05-19T05:13:48.018Z,99451.26
2023-05-19T05:16:15.952Z,99452.16
2023-05-19T05:18:44.911Z,99452.48
2023-05-19T05:21:12.660Z,99452.75
2023-05-19T05:23:40.704Z,99456.91
2023-05-19T05:26:11.047Z,99461.17
2023-05-19T05:28:37.945Z,99458.98
2023-05-19T05:31:05.910Z,99462.38
2023-05-19T05:33:32.785Z,99466.40
2023-05-19T05:35:59.720Z,99474.61
2023-05-19T05:38:31.084Z,99477.27
2023-05-19T05:40:57.882Z,99476.39
2023-05-19T05:43:25.029Z,99475.16
2023-05-19T05:45:57.299Z,99477.12
2023-05-19T05:48:25.532Z,99478.15
2023-05-19T05:50:52.771Z,99469.98
2023-05-19T05:53:23.261Z,99474.50
2023-05-19T05:55:53.714Z,99484.45
2023-05-19T05:58:22.605Z,99484.30
2023-05-19T06:00:51.539Z,99492.02
2023-05-19T06:03:18.596Z,99491.22
2023-05-19T06:05:45.860Z,99498.52
2023-05-19T06:08:13.247Z,99500.30
2023-05-19T06:10:45.128Z,99501.96
2023-05-19T06:13:13.789Z,99500.61
2023-05-19T06:15:42.206Z,99501.19
2023-05-19T06:18:16.592Z,99504.70
2023-05-19T06:20:44.512Z,99507.05
2023-05-19T06:23:11.419Z,99508.26
2023-05-19T06:25:38.258Z,99509.44
2023-05-19T06:28:06.055Z,99513.31
2023-05-19T06:30:33.271Z,99516.98
2023-05-19T06:33:23.139Z,99514.08
2023-05-19T06:35:51.239Z,99517.95
2023-05-19T06:38:18.307Z,99516.73
2023-05-19T06:40:45.622Z,99512.70
2023-05-19T06:43:12.622Z,99522.00
2023-05-19T06:46:13.198Z,99518.70
2023-05-19T06:48:40.349Z,99523.95
2023-05-19T06:51:07.650Z,99519.57
2023-05-19T06:53:35.472Z,99522.46
2023-05-19T06:56:06.537Z,99519.67
2023-05-19T06:58:33.753Z,99517.43
2023-05-19T07:01:02.321Z,99518.84
2023-05-19T07:03:33.385Z,99521.30
2023-05-19T07:06:00.408Z,99523.36
2023-05-19T07:08:28.470Z,99524.27
2023-05-19T07:10:56.218Z,99522.60
2023-05-19T07:13:24.389Z,99521.20
2023-05-19T07:15:55.921Z,99524.79
2023-05-19T07:18:23.306Z,99527.32
2023-05-19T07:20:53.898Z,99526.36
2023-05-19T07:23:21.171Z,99530.27
2023-05-19T07:25:48.168Z,99531.27
2023-05-19T07:28:14.995Z,99534.39
2023-05-19T07:30:41.932Z,99540.30
2023-05-19T07:33:08.833Z,99538.78
2023-05-19T07:35:35.714Z,99540.73
2023-05-19T07:38:03.150Z,99538.42
2023-05-19T07:40:30.004Z,99539.91
2023-05-19T07:42:57.008Z,99542.08
2023-05-19T07:45:24.909Z,99540.94
2023-05-19T07:47:54.102Z,99542.29
2023-05-19T07:50:21.029Z,99544.29
2023-05-19T07:52:47.910Z,99539.70
2023-05-19T07:55:16.401Z,99540.00
2023-05-19T07:57:43.372Z,99533.35
2023-05-19T08:00:12.650Z,99530.45
2023-05-19T08:02:39.592Z,99536.15
2023-05-19T08:05:07.624Z,99535.21
2023-05-19T08:07:34.780Z,99534.83
2023-05-19T08:10:03.453Z,99535.10
2023-05-19T08:12:30.295Z,99536.52
2023-05-19T08:14:58.919Z,99540.50
2023-05-19T08:17:28.276Z,99537.58
2023-05-19T08:19:55.206Z,99542.18
2023-05-19T08:22:22.600Z,99542.52
2023-05-19T08:24:52.209Z,99538.95
2023-05-19T08:27:19.125Z,99539.77
2023-05-19T08:29:45.989Z,99537.31
2023-05-19T08:32:13.507Z,99540.65
2023-05-19T08:34:41.462Z,99538.70
2023-05-19T08:37:08.370Z,99544.88
2023-05-19T08:39:35.328Z,99549.97
2023-05-19T08:42:03.508Z,99546.70
2023-05-19T08:44:31.785Z,99550.48
2023-05-19T08:47:01.515Z,99547.64
2023-05-19T08:49:28.559Z,99550.59
2023-05-19T08:52:01.590Z,99554.66
2023-05-19T08:55:37.455Z,99546.00
2023-05-19T08:58:04.714Z,99551.78
2023-05-19T09:00:33.241Z,99546.55
2023-05-19T09:03:17.657Z,99550.39
2023-05-19T09:05:49.680Z,99552.69
2023-05-19T09:08:16.703Z,99556.73
2023-05-19T09:10:43.563Z,99555.84
2023-05-19T09:13:10.534Z,99555.66
2023-05-19T09:15:37.455Z,99558.38
2023-05-19T09:18:12.321Z,99557.34
2023-05-19T09:20:46.405Z,99561.94
2023-05-19T09:23:16.543Z,99552.67
2023-05-19T09:25:52.338Z,99553.55
2023-05-19T09:28:28.086Z,99551.52
2023-05-19T09:31:05.583Z,99552.49
2023-05-19T09:33:36.791Z,99548.38
2023-05-19T09:36:14.069Z,99531.50
2023-05-19T09:38:41.768Z,99542.78
2023-05-19T09:41:09.533Z,99545.09
2023-05-19T09:43:37.155Z,99540.27
2023-05-19T09:46:06.953Z,99539.48
2023-05-19T09:48:35.780Z,99534.84
2023-05-19T09:51:08.057Z,99535.09
2023-05-19T09:53:36.043Z,99534.08
2023-05-19T09:56:04.440Z,99537.67
2023-05-19T09:58:34.779Z,99536.45
2023-05-19T10:01:01.745Z,99525.80
2023-05-19T10:03:28.658Z,99532.11
2023-05-19T10:05:55.520Z,99537.63
2023-05-19T10:08:24.222Z,99535.52
2023-05-19T10:10:51.066Z,99529.02
2023-05-19T10:13:17.896Z,99527.96
2023-05-19T10:15:57.104Z,99523.60
2023-05-19T10:18:27.194Z,99525.96
2023-05-19T10:20:54.078Z,99532.53
2023-05-19T10:23:21.238Z,99524.13
2023-05-19T10:25:49.435Z,99529.45
2023-05-19T10:28:17.431Z,99533.44
2023-05-19T10:30:49.619Z,99533.59
2023-05-19T10:33:18.154Z,99532.52
2023-05-19T10:36:11.135Z,99526.27
2023-05-19T10:38:50.235Z,99529.63
2023-05-19T10:41:47.155Z,99537.04
2023-05-19T10:44:23.465Z,99541.61
2023-05-19T10:46:51.182Z,99533.27
2023-05-19T10:49:22.727Z,99529.31
2023-05-19T10:51:50.285Z,99526.27
2023-05-19T10:54:18.503Z,99527.91
2023-05-19T10:56:48.592Z,99524.05
2023-05-19T10:59:34.241Z,99529.98
2023-05-19T11:02:08.423Z,99521.61
2023-05-19T11:04:58.616Z,99507.27
2023-05-19T11:07:25.637Z,99524.95
2023-05-19T11:09:52.783Z,99518.95
2023-05-19T11:12:24.627Z,99515.02
2023-05-19T11:14:55.153Z,99517.77
2023-05-19T11:17:23.808Z,99530.87
2023-05-19T11:19:57.858Z,99535.59
2023-05-19T11:22:28.013Z,99540.53
2023-05-19T11:24:57.229Z,99540.41
2023-05-19T11:27:29.164Z,99537.36
2023-05-19T11:29:56.697Z,99535.02
2023-05-19T11:32:34.960Z,99546.96
2023-05-19T11:35:02.931Z,99540.06
2023-05-19T11:37:32.187Z,99550.19
2023-05-19T11:40:05.424Z,99552.80
2023-05-19T11:42:32.317Z,99555.74
2023-05-19T11:44:59.122Z,99561.40
2023-05-19T11:47:25.940Z,99560.11
2023-05-19T11:49:57.605Z,99562.91
2023-05-19T11:52:25.015Z,99558.20
2023-05-19T11:54:52.469Z,99562.09
2023-05-19T11:57:19.480Z,99554.38
2023-05-19T11:59:48.360Z,99546.46
2023-05-19T12:02:22.728Z,99549.45
2023-05-19T12:04:51.040Z,99547.44
2023-05-19T12:07:23.635Z,99549.71
2023-05-19T12:09:51.968Z,99544.51
2023-05-19T12:12:20.259Z,99548.32
2023-05-19T12:14:47.616Z,99556.05
2023-05-19T12:17:17.989Z,99546.17
2023-05-19T12:19:44.851Z,99554.23
2023-05-19T12:22:12.869Z,99556.55
2023-05-19T12:24:39.802Z,99563.17
2023-05-19T12:27:07.939Z,99545.63
2023-05-19T12:29:35.409Z,99535.40
2023-05-19T12:32:03.569Z,99554.02
2023-05-19T12:34:32.298Z,99552.15
2023-05-19T12:36:59.232Z,99552.03
2023-05-19T12:39:26.206Z,99556.13
2023-05-19T12:41:53.104Z,99552.91
2023-05-19T12:44:19.859Z,99549.30
2023-05-19T12:46:47.718Z,99538.60
2023-05-19T12:49:14.896Z,99548.23
2023-05-19T12:51:41.819Z,99551.41
2023-05-19T21:15:50.738Z,99643.82
2023-05-19T21:18:18.759Z,99644.69
2023-05-19T21:20:45.752Z,99641.31
2023-05-19T21:23:12.625Z,99646.77
2023-05-19T21:25:39.776Z,99638.79
2023-05-19T21:28:07.695Z,99638.75
2023-05-19T21:30:34.720Z,99641.84
2023-05-19T21:33:02.074Z,99642.30
2023-05-19T21:35:29.010Z,99642.73
2023-05-19T21:37:58.241Z,99643.39
2023-05-19T21:40:26.430Z,99647.40
2023-05-19T21:42:53.335Z,99647.23
2023-05-19T21:45:20.223Z,99650.59
2023-05-19T21:47:48.320Z,99651.24
2023-05-19T21:50:17.492Z,99647.55
2023-05-19T21:52:44.497Z,99651.06
2023-05-19T21:55:11.426Z,99655.85
2023-05-19T21:57:38.295Z,99655.05
2023-05-19T22:00:06.835Z,99655.52
2023-05-19T22:02:40.297Z,99661.39
2023-05-19T22:05:08.478Z,99664.19
2023-05-19T22:07:35.405Z,99655.66
2023-05-19T22:10:06.201Z,99656.45
2023-05-19T22:12:33.172Z,99655.15
2023-05-19T22:15:00.868Z,99656.90
2023-05-19T22:17:27.890Z,99655.77
2023-05-19T22:19:54.859Z,99659.48
2023-05-19T22:22:21.750Z,99661.05
2023-05-19T22:24:48.906Z,99658.65
2023-05-19T22:27:15.942Z,99653.05
2023-05-19T22:29:43.833Z,99657.92
2023-05-19T22:32:12.428Z,99654.46
2023-05-19T22:34:39.647Z,99656.20
2023-05-19T22:37:06.507Z,99655.15
2023-05-19T22:39:33.461Z,99656.22
2023-05-19T22:42:00.274Z,99655.65
2023-05-19T22:44:27.113Z,99657.90
2023-05-19T22:46:54.106Z,99654.89
2023-05-19T22:49:30.253Z,99655.20
2023-05-19T22:51:57.182Z,99651.45
2023-05-19T22:54:24.104Z,99656.86
2023-05-19T22:56:51.096Z,99652.52
2023-05-19T22:59:18.227Z,99655.91
2023-05-19T23:01:49.058Z,99652.02
2023-05-19T23:04:16.136Z,99656.67
2023-05-19T23:06:43.097Z,99652.38
2023-05-19T23:09:09.943Z,99654.04
2023-05-19T23:11:36.903Z,99655.10
2023-05-19T23:14:07.185Z,99655.02
2023-05-19T23:16:36.190Z,99658.16
2023-05-19T23:19:04.052Z,99660.11
2023-05-19T23:21:34.065Z,99660.67
2023-05-19T23:24:01.175Z,99658.02
2023-05-19T23:26:27.958Z,99657.18
2023-05-19T23:28:54.811Z,99650.52
2023-05-19T23:31:23.704Z,99655.66
2023-05-19T23:33:50.810Z,99653.34
2023-05-19T23:36:17.872Z,99654.80
2023-05-19T23:38:45.861Z,99655.56
2023-05-19T23:41:12.862Z,99654.31
2023-05-19T23:43:40.768Z,99654.30
2023-05-19T23:46:07.853Z,99650.92
2023-05-19T23:48:36.663Z,99648.27
2023-05-19T23:51:05.879Z,99645.94
2023-05-19T23:53:32.795Z,99644.05
2023-05-19T23:55:59.792Z,99644.91
2023-05-19T23:58:27.846Z,99640.96
